Time;durP1;ratioP1;P1;durP2;ratioP2;P2;SDS_P1;SDS_P2;PMS_P1;PMS_P2;Temp;Humidity;BMP_temperature;BMP_pressure;BME280_temperature;BME280_humidity;BME280_pressure;Samples;Min_cycle;Max_cycle;Signal;HPM_P1;HPM_P2
2022/01/16 00:00:40;;;;;;;7.90;4.95;;;;;;;;;;5071024;28;20454;-48
2022/01/16 00:05:54;;;;;;;6.43;4.40;;;;;;;;;;5074407;28;20397;-48
2022/01/16 00:08:20;;;;;;;6.80;4.70;;;;;;;;;;5073158;28;20033;-47
2022/01/16 00:10:46;;;;;;;7.18;4.63;;;;;;;;;;5070681;28;20061;-46
2022/01/16 00:13:12;;;;;;;5.53;4.05;;;;;;;;;;5054949;28;20045;-48
2022/01/16 00:15:39;;;;;;;6.35;4.68;;;;;;;;;;5072820;28;20029;-47
2022/01/16 00:20:31;;;;;;;6.80;4.25;;;;;;;;;;5073001;28;20033;-49
2022/01/16 00:22:58;;;;;;;5.78;4.32;;;;;;;;;;5073728;28;20454;-49
2022/01/16 00:25:25;;;;;;;6.30;4.68;;;;;;;;;;5053359;28;20021;-48
2022/01/16 00:27:51;;;;;;;5.60;4.38;;;;;;;;;;5070155;28;20021;-47
2022/01/16 00:30:17;;;;;;;6.43;4.55;;;;;;;;;;5073260;28;20103;-48
2022/01/16 00:32:44;;;;;;;7.65;4.47;;;;;;;;;;5073812;28;20111;-47
2022/01/16 00:35:11;;;;;;;6.82;4.50;;;;;;;;;;5073223;28;20025;-55
2022/01/16 00:37:38;;;;;;;6.43;4.60;;;;;;;;;;5057539;28;20486;-47
2022/01/16 00:40:04;;;;;;;5.18;3.60;;;;;;;;;;5053621;28;20082;-48
2022/01/16 00:42:30;;;;;;;7.00;4.63;;;;;;;;;;5034975;28;20024;-48
2022/01/16 00:44:56;;;;;;;7.13;4.35;;;;;;;;;;5053351;28;20100;-48
2022/01/16 00:47:22;;;;;;;4.78;3.70;;;;;;;;;;5065312;28;20108;-47
2022/01/16 00:49:48;;;;;;;5.28;3.97;;;;;;;;;;5073274;28;20021;-52
2022/01/16 00:52:14;;;;;;;6.65;4.38;;;;;;;;;;5072641;28;20028;-46
2022/01/16 00:54:40;;;;;;;6.05;4.28;;;;;;;;;;5072984;28;20449;-47
2022/01/16 00:57:06;;;;;;;6.38;4.45;;;;;;;;;;5052376;28;20028;-48
2022/01/16 00:59:32;;;;;;;6.28;4.00;;;;;;;;;;5072254;28;20028;-47
2022/01/16 01:02:00;;;;;;;6.05;4.35;;;;;;;;;;5054520;28;20028;-48
2022/01/16 01:04:26;;;;;;;6.15;4.20;;;;;;;;;;5072415;28;20844;-47
2022/01/16 01:06:52;;;;;;;6.13;4.38;;;;;;;;;;5059692;28;20031;-48
2022/01/16 01:09:19;;;;;;;5.68;4.13;;;;;;;;;;5052511;28;20536;-46
2022/01/16 01:11:48;;;;;;;6.07;4.10;;;;;;;;;;5060451;28;20454;-47
2022/01/16 01:14:22;;;;;;;7.03;3.85;;;;;;;;;;5070085;28;20453;-47
2022/01/16 01:16:53;;;;;;;5.57;4.03;;;;;;;;;;5070571;28;20453;-47
2022/01/16 01:19:20;;;;;;;6.20;4.30;;;;;;;;;;5069556;28;20025;-48
2022/01/16 01:21:47;;;;;;;6.72;4.00;;;;;;;;;;5072753;28;20020;-46
2022/01/16 01:24:13;;;;;;;5.15;3.92;;;;;;;;;;5060808;28;20017;-50
2022/01/16 01:26:53;;;;;;;5.20;4.05;;;;;;;;;;5068733;28;20078;-47
2022/01/16 01:29:20;;;;;;;6.60;4.15;;;;;;;;;;5054807;28;20086;-47
2022/01/16 01:31:46;;;;;;;6.20;4.13;;;;;;;;;;5072373;28;20094;-47
2022/01/16 01:34:12;;;;;;;5.75;4.35;;;;;;;;;;5072161;28;20024;-55
2022/01/16 01:36:38;;;;;;;4.80;3.95;;;;;;;;;;5061530;28;20021;-47
2022/01/16 01:39:04;;;;;;;5.53;3.75;;;;;;;;;;5053206;28;20028;-47
2022/01/16 01:41:30;;;;;;;5.30;3.78;;;;;;;;;;5071292;28;20025;-46
2022/01/16 01:52:10;;;;;;;5.22;3.63;;;;;;;;;;5072048;28;20121;-51
2022/01/16 01:54:36;;;;;;;5.20;4.00;;;;;;;;;;5071391;28;20584;-47
2022/01/16 01:57:02;;;;;;;5.95;3.85;;;;;;;;;;5057410;28;20075;-47
2022/01/16 01:59:28;;;;;;;5.85;4.03;;;;;;;;;;5055735;28;20025;-48
2022/01/16 02:01:54;;;;;;;5.10;3.55;;;;;;;;;;5072020;28;20029;-47
2022/01/16 02:04:20;;;;;;;5.13;3.85;;;;;;;;;;5069556;28;20024;-46
2022/01/16 02:06:46;;;;;;;5.38;4.55;;;;;;;;;;5058616;28;20104;-47
2022/01/16 02:09:12;;;;;;;5.05;3.78;;;;;;;;;;5051003;28;20453;-56
2022/01/16 02:11:38;;;;;;;5.40;3.67;;;;;;;;;;5051879;28;20056;-47
2022/01/16 02:14:24;;;;;;;4.82;4.03;;;;;;;;;;5051855;28;20096;-48
2022/01/16 02:28:13;;;;;;;5.82;3.72;;;;;;;;;;5051749;28;20068;-47
2022/01/16 02:34:31;;;;;;;5.10;3.90;;;;;;;;;;5066328;28;20074;-47
2022/01/16 02:36:32;;;;;;;5.07;4.03;;;;;;;;;;5066678;28;20029;-47
2022/01/16 02:39:07;;;;;;;4.50;3.40;;;;;;;;;;5051873;28;20053;-49
2022/01/16 02:41:33;;;;;;;5.72;3.67;;;;;;;;;;5050946;28;20562;-47
2022/01/16 02:43:59;;;;;;;5.22;3.88;;;;;;;;;;5051699;28;20104;-47
2022/01/16 02:48:54;;;;;;;5.28;3.67;;;;;;;;;;5071570;28;20037;-46
2022/01/16 02:51:21;;;;;;;6.05;4.00;;;;;;;;;;5054999;28;20020;-47
2022/01/16 02:53:48;;;;;;;5.35;3.97;;;;;;;;;;5051408;28;20045;-46
2022/01/16 02:56:15;;;;;;;6.32;4.15;;;;;;;;;;5052070;28;20366;-56
2022/01/16 02:58:41;;;;;;;5.75;3.83;;;;;;;;;;5051441;28;20086;-47
2022/01/16 03:01:07;;;;;;;5.68;3.95;;;;;;;;;;5051369;28;20086;-47
2022/01/16 03:03:33;;;;;;;4.97;3.83;;;;;;;;;;5050803;28;20111;-47
2022/01/16 03:05:59;;;;;;;5.22;4.05;;;;;;;;;;5051224;28;20493;-46
2022/01/16 03:08:25;;;;;;;5.25;4.10;;;;;;;;;;5050996;28;20056;-47
2022/01/16 03:11:16;;;;;;;5.68;4.35;;;;;;;;;;5064367;28;20024;-48
2022/01/16 03:13:47;;;;;;;7.03;3.63;;;;;;;;;;5073074;28;20041;-46
2022/01/16 03:16:15;;;;;;;4.90;3.70;;;;;;;;;;5073285;28;20025;-54
2022/01/16 03:24:10;;;;;;;5.75;3.80;;;;;;;;;;5065250;28;20066;-47
2022/01/16 03:26:36;;;;;;;5.30;3.78;;;;;;;;;;5070338;28;20111;-47
2022/01/16 03:29:02;;;;;;;4.30;3.50;;;;;;;;;;5054360;28;20032;-47
2022/01/16 03:31:28;;;;;;;5.05;3.70;;;;;;;;;;5053852;28;20025;-47
2022/01/16 03:33:54;;;;;;;4.90;3.60;;;;;;;;;;5054914;28;20123;-47
2022/01/16 03:36:21;;;;;;;4.18;3.65;;;;;;;;;;5055540;28;20029;-46
2022/01/16 03:38:47;;;;;;;4.65;3.42;;;;;;;;;;5075087;28;20432;-47
2022/01/16 03:41:13;;;;;;;4.90;4.00;;;;;;;;;;5074460;28;20024;-51
2022/01/16 03:43:39;;;;;;;5.45;3.90;;;;;;;;;;5074276;28;20033;-47
2022/01/16 03:46:05;;;;;;;4.20;3.53;;;;;;;;;;5057082;28;20386;-48
2022/01/16 03:48:31;;;;;;;4.68;3.53;;;;;;;;;;5073142;28;20033;-50
2022/01/16 03:50:57;;;;;;;4.55;3.47;;;;;;;;;;5074594;28;20027;-50
2022/01/16 03:53:23;;;;;;;5.03;3.70;;;;;;;;;;5073850;28;20082;-49
2022/01/16 03:55:49;;;;;;;4.60;3.42;;;;;;;;;;5074172;28;20029;-50
2022/01/16 03:58:15;;;;;;;4.30;3.42;;;;;;;;;;5073517;28;20470;-57
2022/01/16 04:00:41;;;;;;;4.03;3.28;;;;;;;;;;5073900;28;20028;-47
2022/01/16 04:03:07;;;;;;;3.35;2.78;;;;;;;;;;5071720;28;20458;-47
2022/01/16 04:05:33;;;;;;;4.32;3.58;;;;;;;;;;5053393;28;20028;-47
2022/01/16 04:08:02;;;;;;;4.95;3.40;;;;;;;;;;5065699;28;20035;-48
2022/01/16 04:10:28;;;;;;;5.97;3.90;;;;;;;;;;5073615;28;20027;-48
2022/01/16 04:12:54;;;;;;;5.32;3.53;;;;;;;;;;5067024;28;20107;-48
2022/01/16 04:17:46;;;;;;;5.40;3.60;;;;;;;;;;5062968;28;20036;-48
2022/01/16 04:20:16;;;;;;;4.72;3.55;;;;;;;;;;5056138;28;20484;-47
2022/01/16 04:22:42;;;;;;;5.18;3.10;;;;;;;;;;5060153;28;20112;-47
2022/01/16 04:25:09;;;;;;;4.63;3.15;;;;;;;;;;5071743;28;20021;-47
2022/01/16 04:27:35;;;;;;;4.65;3.45;;;;;;;;;;5072198;28;20034;-47
2022/01/16 04:30:01;;;;;;;4.28;3.72;;;;;;;;;;5073679;28;20101;-46
2022/01/16 04:32:27;;;;;;;5.32;3.90;;;;;;;;;;5072628;28;20162;-47
2022/01/16 04:34:53;;;;;;;4.05;3.30;;;;;;;;;;5073956;28;20476;-47
2022/01/16 04:37:19;;;;;;;4.47;3.03;;;;;;;;;;5065691;28;20124;-55
2022/01/16 04:39:50;;;;;;;4.40;3.10;;;;;;;;;;5053651;28;20063;-49
2022/01/16 04:45:02;;;;;;;3.53;3.20;;;;;;;;;;5053956;28;20071;-46
2022/01/16 04:47:29;;;;;;;5.13;3.45;;;;;;;;;;5058706;28;20461;-47
2022/01/16 04:49:55;;;;;;;4.15;3.75;;;;;;;;;;5073886;28;20099;-48
2022/01/16 04:52:21;;;;;;;4.78;3.45;;;;;;;;;;5072721;28;20044;-46
2022/01/16 04:54:47;;;;;;;4.70;3.45;;;;;;;;;;5073753;28;20118;-47
2022/01/16 04:57:13;;;;;;;4.07;3.53;;;;;;;;;;5051571;28;20119;-48
2022/01/16 04:59:39;;;;;;;4.28;3.50;;;;;;;;;;5052779;28;20051;-48
2022/01/16 05:02:05;;;;;;;4.15;3.35;;;;;;;;;;5053261;28;20029;-47
2022/01/16 05:04:31;;;;;;;4.05;2.90;;;;;;;;;;5052381;28;20355;-47
2022/01/16 05:06:58;;;;;;;4.00;3.58;;;;;;;;;;5056346;28;20094;-49
2022/01/16 05:09:24;;;;;;;4.15;3.20;;;;;;;;;;5072580;28;20025;-47
2022/01/16 05:11:55;;;;;;;5.65;3.95;;;;;;;;;;5072711;28;20024;-51
2022/01/16 05:17:05;;;;;;;4.07;3.15;;;;;;;;;;5063326;28;20055;-50
2022/01/16 05:19:31;;;;;;;3.85;3.17;;;;;;;;;;5052190;28;20029;-50
2022/01/16 05:21:57;;;;;;;4.03;2.95;;;;;;;;;;5053000;28;20112;-49
2022/01/16 05:24:28;;;;;;;4.15;2.97;;;;;;;;;;5063785;28;20103;-52
2022/01/16 05:26:54;;;;;;;4.63;3.28;;;;;;;;;;5072141;28;20029;-48
2022/01/16 05:29:20;;;;;;;3.90;3.05;;;;;;;;;;5072035;28;20036;-55
2022/01/16 05:31:46;;;;;;;5.03;3.35;;;;;;;;;;5072563;28;20024;-48
2022/01/16 05:34:13;;;;;;;3.92;3.03;;;;;;;;;;5072687;28;20449;-48
2022/01/16 05:36:39;;;;;;;4.65;3.67;;;;;;;;;;5053450;28;20593;-49
2022/01/16 05:39:05;;;;;;;5.03;3.70;;;;;;;;;;5072392;28;20020;-47
2022/01/16 05:41:31;;;;;;;4.65;3.40;;;;;;;;;;5071980;28;20043;-48
2022/01/16 05:43:57;;;;;;;4.45;3.63;;;;;;;;;;5054505;28;20075;-45
2022/01/16 05:46:23;;;;;;;4.82;3.70;;;;;;;;;;5071087;28;20023;-48
2022/01/16 05:48:50;;;;;;;5.13;4.03;;;;;;;;;;5054656;28;20029;-59
2022/01/16 05:51:16;;;;;;;4.68;3.60;;;;;;;;;;5052619;28;20017;-47
2022/01/16 05:53:44;;;;;;;5.22;3.85;;;;;;;;;;5051334;28;20033;-47
2022/01/16 05:56:11;;;;;;;4.38;3.38;;;;;;;;;;5052479;28;20075;-47
2022/01/16 05:58:37;;;;;;;4.40;3.40;;;;;;;;;;5066716;28;20036;-46
2022/01/16 06:01:03;;;;;;;3.67;2.90;;;;;;;;;;5071799;28;20036;-46
2022/01/16 06:03:29;;;;;;;4.88;3.58;;;;;;;;;;5063963;28;20025;-46
2022/01/16 06:05:55;;;;;;;4.05;2.92;;;;;;;;;;5052221;28;20378;-47
2022/01/16 06:08:21;;;;;;;3.78;3.10;;;;;;;;;;5051931;28;20032;-55
2022/01/16 06:10:47;;;;;;;4.70;3.47;;;;;;;;;;5062867;28;20040;-51
2022/01/16 06:13:13;;;;;;;4.57;3.10;;;;;;;;;;5071500;28;20028;-47
2022/01/16 06:15:40;;;;;;;3.90;3.28;;;;;;;;;;5070963;28;20032;-47
2022/01/16 06:18:06;;;;;;;3.45;2.70;;;;;;;;;;5072013;28;20154;-48
2022/01/16 06:20:32;;;;;;;3.67;3.13;;;;;;;;;;5069445;28;20374;-47
2022/01/16 06:22:59;;;;;;;4.25;3.42;;;;;;;;;;5071630;28;20032;-48
2022/01/16 06:25:25;;;;;;;3.50;3.13;;;;;;;;;;5051165;28;20480;-47
2022/01/16 06:27:52;;;;;;;3.92;2.88;;;;;;;;;;5051833;28;20033;-48
2022/01/16 06:30:18;;;;;;;5.28;3.67;;;;;;;;;;5060084;28;20031;-46
2022/01/16 06:32:44;;;;;;;4.60;3.25;;;;;;;;;;5058037;28;20045;-48
2022/01/16 06:35:10;;;;;;;3.58;3.13;;;;;;;;;;5051766;28;20032;-47
2022/01/16 06:37:37;;;;;;;5.32;3.30;;;;;;;;;;5050741;28;20045;-48
2022/01/16 06:40:03;;;;;;;3.95;3.53;;;;;;;;;;5051727;28;20059;-47
2022/01/16 06:42:29;;;;;;;4.10;3.20;;;;;;;;;;5060814;28;20086;-52
2022/01/16 06:44:55;;;;;;;4.18;3.40;;;;;;;;;;5071539;28;20021;-48
2022/01/16 06:47:21;;;;;;;4.20;3.40;;;;;;;;;;5073187;28;20088;-56
2022/01/16 06:49:48;;;;;;;3.45;2.63;;;;;;;;;;5074553;28;20077;-47
2022/01/16 06:52:14;;;;;;;4.57;3.10;;;;;;;;;;5075878;28;20044;-48
2022/01/16 06:54:40;;;;;;;3.97;3.20;;;;;;;;;;5066838;28;20021;-48
2022/01/16 06:57:06;;;;;;;2.92;2.50;;;;;;;;;;5065381;28;20036;-48
2022/01/16 06:59:34;;;;;;;4.43;3.00;;;;;;;;;;5062458;28;20021;-47
2022/01/16 07:02:00;;;;;;;3.63;3.22;;;;;;;;;;5064218;28;20028;-47
2022/01/16 07:04:27;;;;;;;3.72;2.75;;;;;;;;;;5046879;28;20461;-51
2022/01/16 07:06:53;;;;;;;4.00;2.95;;;;;;;;;;5064647;28;20486;-50
2022/01/16 07:09:19;;;;;;;4.35;2.83;;;;;;;;;;5064171;28;20013;-53
2022/01/16 07:11:45;;;;;;;3.95;3.13;;;;;;;;;;5064323;28;20029;-48
2022/01/16 07:14:11;;;;;;;4.53;3.33;;;;;;;;;;5062186;28;20021;-47
2022/01/16 07:16:37;;;;;;;4.32;3.25;;;;;;;;;;5063384;28;20039;-48
2022/01/16 07:19:03;;;;;;;4.65;3.60;;;;;;;;;;5064531;28;20025;-47
2022/01/16 07:21:29;;;;;;;3.60;2.80;;;;;;;;;;5061931;28;20508;-47
2022/01/16 07:23:55;;;;;;;3.88;3.25;;;;;;;;;;5045260;28;20032;-48
2022/01/16 07:26:21;;;;;;;3.80;2.70;;;;;;;;;;5062689;28;20462;-55
2022/01/16 07:28:47;;;;;;;3.55;3.17;;;;;;;;;;5063004;28;20029;-49
2022/01/16 07:31:13;;;;;;;4.68;3.58;;;;;;;;;;5062972;28;20104;-48
2022/01/16 07:33:39;;;;;;;3.80;3.10;;;;;;;;;;5062174;28;20120;-48
2022/01/16 07:36:06;;;;;;;3.95;3.17;;;;;;;;;;5063044;28;20036;-48
2022/01/16 07:38:32;;;;;;;3.22;2.60;;;;;;;;;;5063247;28;20121;-48
2022/01/16 07:40:58;;;;;;;3.33;2.90;;;;;;;;;;5061721;28;20021;-48
2022/01/16 07:43:24;;;;;;;3.20;2.80;;;;;;;;;;5063870;28;20033;-55
2022/01/16 07:45:50;;;;;;;4.05;3.10;;;;;;;;;;5045191;28;20028;-49
2022/01/16 07:48:16;;;;;;;4.25;3.35;;;;;;;;;;5065584;28;20539;-48
2022/01/16 07:50:42;;;;;;;4.55;2.80;;;;;;;;;;5067259;28;20021;-48
2022/01/16 07:53:08;;;;;;;4.50;3.20;;;;;;;;;;5064181;28;20078;-49
2022/01/16 07:55:34;;;;;;;3.38;2.70;;;;;;;;;;5064257;28;20036;-49
2022/01/16 07:58:01;;;;;;;3.28;2.60;;;;;;;;;;5060213;28;20482;-48
2022/01/16 08:00:27;;;;;;;3.33;2.72;;;;;;;;;;5064828;28;20028;-52
2022/01/16 08:02:53;;;;;;;4.38;3.35;;;;;;;;;;5072264;28;20056;-50
2022/01/16 08:05:20;;;;;;;3.42;2.85;;;;;;;;;;5071300;28;20032;-50
2022/01/16 08:07:46;;;;;;;3.13;2.65;;;;;;;;;;5073193;28;20024;-47
2022/01/16 08:10:13;;;;;;;5.20;3.95;;;;;;;;;;5068538;28;20094;-47
2022/01/16 08:12:39;;;;;;;4.47;2.85;;;;;;;;;;5053388;28;20037;-47
2022/01/16 08:15:06;;;;;;;4.05;2.97;;;;;;;;;;5054201;28;20374;-48
2022/01/16 08:17:32;;;;;;;5.13;2.78;;;;;;;;;;5067827;28;20374;-48
2022/01/16 08:19:59;;;;;;;2.97;2.38;;;;;;;;;;5075828;28;20365;-50
2022/01/16 08:22:26;;;;;;;3.13;2.78;;;;;;;;;;5064289;28;20021;-52
2022/01/16 08:24:52;;;;;;;4.95;2.92;;;;;;;;;;5068814;28;20032;-47
2022/01/16 08:27:18;;;;;;;4.18;3.13;;;;;;;;;;5073901;28;20028;-46
2022/01/16 08:29:44;;;;;;;5.60;3.55;;;;;;;;;;5053849;28;20035;-46
2022/01/16 08:32:10;;;;;;;4.15;2.90;;;;;;;;;;5048979;28;20045;-47
2022/01/16 08:34:37;;;;;;;5.25;2.60;;;;;;;;;;5060483;28;20071;-49
2022/01/16 08:37:03;;;;;;;4.25;2.90;;;;;;;;;;5040232;28;20143;-48
2022/01/16 08:39:29;;;;;;;4.07;3.03;;;;;;;;;;5072923;28;20051;-48
2022/01/16 08:41:55;;;;;;;3.10;2.58;;;;;;;;;;5083673;28;20481;-48
2022/01/16 08:44:21;;;;;;;5.30;3.65;;;;;;;;;;5093995;28;20366;-47
2022/01/16 08:46:47;;;;;;;3.78;2.85;;;;;;;;;;5074620;28;20036;-50
2022/01/16 08:49:14;;;;;;;3.75;2.95;;;;;;;;;;5073851;28;20033;-54
2022/01/16 08:51:40;;;;;;;3.25;2.78;;;;;;;;;;5072227;28;20078;-55
2022/01/16 08:54:06;;;;;;;4.88;3.00;;;;;;;;;;5085510;28;20430;-53
2022/01/16 08:56:32;;;;;;;6.75;3.42;;;;;;;;;;5092477;28;20111;-52
2022/01/16 08:58:58;;;;;;;7.95;3.05;;;;;;;;;;5092361;28;20453;-52
2022/01/16 09:01:24;;;;;;;5.55;3.78;;;;;;;;;;5093257;28;20028;-54
2022/01/16 09:03:50;;;;;;;4.07;3.40;;;;;;;;;;5087926;28;20029;-53
2022/01/16 09:06:17;;;;;;;7.32;3.47;;;;;;;;;;5073467;28;20078;-54
2022/01/16 09:08:43;;;;;;;5.15;3.28;;;;;;;;;;5072345;28;20037;-48
2022/01/16 09:11:09;;;;;;;4.93;2.83;;;;;;;;;;5073069;28;20032;-56
2022/01/16 09:13:37;;;;;;;6.13;3.47;;;;;;;;;;5082234;28;20043;-46
2022/01/16 09:16:03;;;;;;;3.85;3.05;;;;;;;;;;5076773;28;20082;-49
2022/01/16 09:18:29;;;;;;;7.00;3.47;;;;;;;;;;5071807;28;20389;-48
2022/01/16 09:20:56;;;;;;;4.85;3.17;;;;;;;;;;5073846;28;20021;-51
2022/01/16 09:23:22;;;;;;;5.55;3.72;;;;;;;;;;5076277;28;20020;-49
2022/01/16 09:25:48;;;;;;;5.80;3.22;;;;;;;;;;5092395;28;20020;-52
2022/01/16 09:28:14;;;;;;;6.93;3.25;;;;;;;;;;5093142;28;20024;-46
2022/01/16 09:30:41;;;;;;;4.97;3.38;;;;;;;;;;5087320;28;20534;-45
2022/01/16 09:33:07;;;;;;;5.80;3.15;;;;;;;;;;5093135;28;20020;-51
2022/01/16 09:35:33;;;;;;;4.28;3.00;;;;;;;;;;5071631;28;20031;-48
2022/01/16 09:38:00;;;;;;;3.95;3.10;;;;;;;;;;5071461;28;20410;-47
2022/01/16 09:40:26;;;;;;;7.15;3.60;;;;;;;;;;5077697;28;20053;-55
2022/01/16 09:42:52;;;;;;;3.42;2.95;;;;;;;;;;5091442;28;20043;-47
2022/01/16 09:45:19;;;;;;;5.55;3.33;;;;;;;;;;5092806;28;20026;-47
2022/01/16 09:47:45;;;;;;;4.35;3.20;;;;;;;;;;5072854;28;20465;-48
2022/01/16 09:50:13;;;;;;;6.57;3.10;;;;;;;;;;5072770;28;20033;-49
2022/01/16 09:52:40;;;;;;;4.93;2.90;;;;;;;;;;5079267;28;20089;-47
2022/01/16 09:55:07;;;;;;;4.03;3.25;;;;;;;;;;5092407;28;20028;-49
2022/01/16 09:57:34;;;;;;;3.83;2.85;;;;;;;;;;5091504;28;20032;-46
2022/01/16 10:00:00;;;;;;;4.22;3.33;;;;;;;;;;5091905;28;20437;-46
2022/01/16 10:02:26;;;;;;;4.10;2.80;;;;;;;;;;5092163;28;20032;-54
2022/01/16 10:04:53;;;;;;;5.75;3.70;;;;;;;;;;5084366;28;20031;-49
2022/01/16 10:07:19;;;;;;;4.63;3.10;;;;;;;;;;5092464;28;20042;-49
2022/01/16 10:09:46;;;;;;;5.05;3.35;;;;;;;;;;5074335;28;20497;-48
2022/01/16 10:12:17;;;;;;;4.60;3.22;;;;;;;;;;5070823;28;20507;-57
2022/01/16 10:14:48;;;;;;;5.82;3.35;;;;;;;;;;5071412;28;20025;-50
2022/01/16 10:17:15;;;;;;;7.00;3.50;;;;;;;;;;5085972;28;20032;-49
2022/01/16 10:19:41;;;;;;;4.13;3.15;;;;;;;;;;5091512;28;20027;-50
2022/01/16 10:22:09;;;;;;;5.80;3.50;;;;;;;;;;5092221;28;20032;-49
2022/01/16 10:24:35;;;;;;;4.28;3.05;;;;;;;;;;5077523;28;20024;-55
2022/01/16 10:27:11;;;;;;;6.55;3.50;;;;;;;;;;5082351;28;20032;-52
2022/01/16 10:29:44;;;;;;;6.85;3.88;;;;;;;;;;5074504;28;20020;-53
2022/01/16 10:32:12;;;;;;;6.53;3.65;;;;;;;;;;5071531;28;20079;-57
2022/01/16 10:34:38;;;;;;;5.97;3.10;;;;;;;;;;5080320;28;20035;-56
2022/01/16 10:37:24;;;;;;;5.95;3.72;;;;;;;;;;5074513;28;20094;-47
2022/01/16 10:40:01;;;;;;;5.65;3.67;;;;;;;;;;5031696;28;20017;-50
2022/01/16 10:42:29;;;;;;;5.22;3.80;;;;;;;;;;5069551;28;20069;-47
2022/01/16 10:44:56;;;;;;;8.10;3.97;;;;;;;;;;5059670;28;20103;-47
2022/01/16 10:47:26;;;;;;;5.30;3.45;;;;;;;;;;5033596;28;20025;-47
2022/01/16 10:50:05;;;;;;;7.03;4.65;;;;;;;;;;5050893;28;20028;-48
2022/01/16 10:52:31;;;;;;;5.75;3.72;;;;;;;;;;5040373;28;20377;-54
2022/01/16 10:55:05;;;;;;;5.05;3.72;;;;;;;;;;5071515;28;20090;-47
2022/01/16 10:57:31;;;;;;;5.75;3.58;;;;;;;;;;5070716;28;20066;-55
2022/01/16 11:00:06;;;;;;;5.60;3.60;;;;;;;;;;5071286;28;20107;-48
2022/01/16 11:02:32;;;;;;;6.28;4.00;;;;;;;;;;5056497;28;20036;-54
2022/01/16 11:05:07;;;;;;;6.43;3.88;;;;;;;;;;5051595;28;20029;-46
2022/01/16 11:07:32;;;;;;;6.40;4.05;;;;;;;;;;5050564;28;20032;-54
2022/01/16 11:10:00;;;;;;;6.78;3.53;;;;;;;;;;5033745;28;20021;-46
2022/01/16 11:12:26;;;;;;;6.78;3.85;;;;;;;;;;5052076;28;20061;-48
2022/01/16 11:14:53;;;;;;;11.27;4.05;;;;;;;;;;5063551;28;20025;-48
2022/01/16 11:17:19;;;;;;;5.05;3.85;;;;;;;;;;5071519;28;20162;-49
2022/01/16 11:19:45;;;;;;;4.57;3.50;;;;;;;;;;5071146;28;20111;-46
2022/01/16 11:22:20;;;;;;;6.78;4.25;;;;;;;;;;5071150;28;20818;-49
2022/01/16 11:24:58;;;;;;;5.30;4.13;;;;;;;;;;5055919;28;20021;-49
2022/01/16 11:27:24;;;;;;;7.45;3.58;;;;;;;;;;5055526;28;20016;-46
2022/01/16 11:29:51;;;;;;;6.53;3.63;;;;;;;;;;5070290;28;20182;-48
2022/01/16 11:32:17;;;;;;;5.47;3.60;;;;;;;;;;5071008;28;20119;-49
2022/01/16 11:34:43;;;;;;;5.90;3.40;;;;;;;;;;5061946;28;20351;-52
2022/01/16 11:37:10;;;;;;;9.05;4.40;;;;;;;;;;5053918;28;20049;-50
2022/01/16 11:39:36;;;;;;;6.68;3.75;;;;;;;;;;5041831;28;20119;-46
2022/01/16 11:42:04;;;;;;;6.80;4.20;;;;;;;;;;5073379;28;20071;-49
2022/01/16 11:44:31;;;;;;;6.43;3.92;;;;;;;;;;5074684;28;20044;-52
2022/01/16 11:46:58;;;;;;;15.63;4.55;;;;;;;;;;5070756;28;20040;-48
2022/01/16 11:49:45;;;;;;;5.53;3.53;;;;;;;;;;5058079;28;20021;-47
2022/01/16 11:52:12;;;;;;;6.03;3.60;;;;;;;;;;5074604;28;20381;-46
2022/01/16 11:54:44;;;;;;;6.90;3.40;;;;;;;;;;5073886;28;20063;-46
2022/01/16 11:57:18;;;;;;;6.53;3.80;;;;;;;;;;5069666;28;20021;-46
2022/01/16 11:59:45;;;;;;;5.07;3.55;;;;;;;;;;5054455;28;20036;-47
2022/01/16 12:02:15;;;;;;;4.28;3.22;;;;;;;;;;5062807;28;20056;-47
2022/01/16 12:04:44;;;;;;;4.95;3.70;;;;;;;;;;5060850;28;20024;-46
2022/01/16 12:07:13;;;;;;;6.82;3.38;;;;;;;;;;5059055;28;20029;-46
2022/01/16 12:09:47;;;;;;;5.57;3.80;;;;;;;;;;5073196;28;20060;-46
2022/01/16 12:12:13;;;;;;;8.52;4.35;;;;;;;;;;5074134;28;20029;-47
2022/01/16 12:14:51;;;;;;;6.93;4.65;;;;;;;;;;5059717;28;20090;-48
2022/01/16 12:17:35;;;;;;;7.03;3.70;;;;;;;;;;5054309;28;20072;-48
2022/01/16 12:22:42;;;;;;;6.68;3.40;;;;;;;;;;5053505;28;20037;-47
2022/01/16 12:25:09;;;;;;;7.38;3.70;;;;;;;;;;5069665;28;20028;-47
2022/01/16 12:27:46;;;;;;;6.85;4.43;;;;;;;;;;5053545;28;20017;-54
2022/01/16 12:30:13;;;;;;;7.10;3.83;;;;;;;;;;5066819;28;20028;-46
2022/01/16 12:32:56;;;;;;;7.72;3.30;;;;;;;;;;5063139;28;20036;-46
2022/01/16 12:35:21;;;;;;;;;;;;;;;;;;5064756;28;20020;-46
2022/01/16 12:37:48;;;;;;;6.57;3.80;;;;;;;;;;5071773;28;19966;-47
2022/01/16 12:40:19;;;;;;;5.32;3.17;;;;;;;;;;5074090;28;20104;-49
2022/01/16 12:42:45;;;;;;;8.13;3.90;;;;;;;;;;5062766;28;20033;-47
2022/01/16 12:45:11;;;;;;;6.95;3.67;;;;;;;;;;5053100;28;20032;-46
2022/01/16 12:47:38;;;;;;;5.90;3.70;;;;;;;;;;5061400;28;20036;-47
2022/01/16 12:50:13;;;;;;;5.03;3.78;;;;;;;;;;5073659;28;20027;-46
2022/01/16 12:52:46;;;;;;;4.38;3.08;;;;;;;;;;5072265;28;20040;-46
2022/01/16 12:55:13;;;;;;;4.93;3.33;;;;;;;;;;5073602;28;20024;-46
2022/01/16 12:57:39;;;;;;;4.35;3.58;;;;;;;;;;5072623;28;20025;-48
2022/01/16 13:00:12;;;;;;;5.55;3.60;;;;;;;;;;5059025;28;20056;-49
2022/01/16 13:02:38;;;;;;;6.00;3.78;;;;;;;;;;5063475;28;20036;-47
2022/01/16 13:05:05;;;;;;;5.68;3.65;;;;;;;;;;5057314;28;20044;-47
2022/01/16 13:07:32;;;;;;;5.50;3.80;;;;;;;;;;5053009;28;20520;-46
2022/01/16 13:09:58;;;;;;;4.53;3.53;;;;;;;;;;5051965;28;20111;-49
2022/01/16 13:12:24;;;;;;;5.65;3.10;;;;;;;;;;5066712;28;20044;-52
2022/01/16 13:14:51;;;;;;;4.70;3.28;;;;;;;;;;5071772;28;20378;-46
2022/01/16 13:17:18;;;;;;;4.43;3.60;;;;;;;;;;5073269;28;20033;-46
2022/01/16 13:22:13;;;;;;;9.02;3.60;;;;;;;;;;5052642;28;20110;-59
2022/01/16 13:24:51;;;;;;;6.40;3.25;;;;;;;;;;5050407;28;20029;-50
2022/01/16 13:27:21;;;;;;;6.45;3.50;;;;;;;;;;5052868;28;20033;-46
2022/01/16 13:29:57;;;;;;;6.25;4.30;;;;;;;;;;5054655;28;20032;-52
2022/01/16 13:32:27;;;;;;;8.40;3.10;;;;;;;;;;5073820;28;20351;-51
2022/01/16 13:34:54;;;;;;;5.47;3.50;;;;;;;;;;5073486;28;20377;-49
2022/01/16 13:37:26;;;;;;;7.10;3.10;;;;;;;;;;5071042;28;20045;-52
2022/01/16 13:39:52;;;;;;;;;;;;;;;;;;5072105;28;20032;-51
2022/01/16 13:42:18;;;;;;;12.02;2.92;;;;;;;;;;5072569;28;19904;-48
2022/01/16 13:44:44;;;;;;;8.10;3.97;;;;;;;;;;5070720;28;20032;-48
2022/01/16 13:47:15;;;;;;;5.05;3.35;;;;;;;;;;5072390;28;20032;-50
2022/01/16 13:49:46;;;;;;;8.35;3.38;;;;;;;;;;5051791;28;20532;-50
2022/01/16 13:52:12;;;;;;;4.40;3.10;;;;;;;;;;5052274;28;20470;-49
2022/01/16 13:54:38;;;;;;;5.72;3.15;;;;;;;;;;5058995;28;20090;-59
2022/01/16 13:57:04;;;;;;;7.78;3.97;;;;;;;;;;5071647;28;20025;-51
2022/01/16 13:59:30;;;;;;;4.45;3.03;;;;;;;;;;5066502;28;20025;-49
2022/01/16 14:01:57;;;;;;;10.93;3.00;;;;;;;;;;5051622;28;20496;-50
2022/01/16 14:04:24;;;;;;;7.28;3.13;;;;;;;;;;5057316;28;20023;-50
2022/01/16 14:06:52;;;;;;;4.57;2.67;;;;;;;;;;5071277;28;20024;-51
2022/01/16 14:09:22;;;;;;;8.48;3.33;;;;;;;;;;5072401;28;20024;-52
2022/01/16 14:11:49;;;;;;;8.07;3.25;;;;;;;;;;5071625;28;20369;-49
2022/01/16 14:14:16;;;;;;;7.55;3.30;;;;;;;;;;5071667;28;20020;-53
2022/01/16 14:16:47;;;;;;;5.75;2.88;;;;;;;;;;5062110;28;20108;-54
2022/01/16 14:19:19;;;;;;;7.77;3.37;;;;;;;;;;5070042;28;20492;-51
2022/01/16 14:21:59;;;;;;;6.07;2.92;;;;;;;;;;5070755;28;20156;-52
2022/01/16 14:24:26;;;;;;;4.57;3.22;;;;;;;;;;5062697;28;20024;-52
2022/01/16 14:26:53;;;;;;;4.53;3.13;;;;;;;;;;5070629;28;20033;-52
2022/01/16 14:29:20;;;;;;;5.60;3.42;;;;;;;;;;5061869;28;20028;-49
2022/01/16 14:31:47;;;;;;;5.30;3.13;;;;;;;;;;5070296;28;20028;-50
2022/01/16 14:34:13;;;;;;;5.05;2.50;;;;;;;;;;5051720;28;20120;-49
2022/01/16 14:36:40;;;;;;;4.40;2.83;;;;;;;;;;5050940;28;20122;-60
2022/01/16 14:39:06;;;;;;;4.65;2.42;;;;;;;;;;5051930;28;20056;-51
2022/01/16 14:41:33;;;;;;;5.18;2.78;;;;;;;;;;5047618;28;20134;-50
2022/01/16 14:44:02;;;;;;;3.80;2.85;;;;;;;;;;5070395;28;20622;-52
2022/01/16 14:46:28;;;;;;;4.95;2.83;;;;;;;;;;5053280;28;20464;-51
2022/01/16 14:48:55;;;;;;;3.58;2.63;;;;;;;;;;5058138;28;20027;-51
2022/01/16 14:51:21;;;;;;;4.85;2.83;;;;;;;;;;5051266;28;20051;-50
2022/01/16 14:53:47;;;;;;;5.97;2.80;;;;;;;;;;5066156;28;20044;-52
2022/01/16 14:56:14;;;;;;;3.40;2.58;;;;;;;;;;5071268;28;20016;-52
2022/01/16 14:58:41;;;;;;;3.35;2.80;;;;;;;;;;5070257;28;20020;-59
2022/01/16 15:01:08;;;;;;;4.07;2.75;;;;;;;;;;5052289;28;20033;-52
2022/01/16 15:03:34;;;;;;;3.75;2.72;;;;;;;;;;5051640;28;20029;-50
2022/01/16 15:06:06;;;;;;;4.07;2.65;;;;;;;;;;5066088;28;20021;-49
2022/01/16 15:08:32;;;;;;;;;;;;;;;;;;5073757;28;20033;-52
2022/01/16 15:10:58;;;;;;;4.18;3.10;;;;;;;;;;5053781;28;20000;-52
2022/01/16 15:13:24;;;;;;;3.13;2.35;;;;;;;;;;5073348;28;20056;-48
2022/01/16 15:15:50;;;;;;;3.08;2.40;;;;;;;;;;5059670;28;20095;-48
2022/01/16 15:18:18;;;;;;;3.65;2.60;;;;;;;;;;5071737;28;20029;-54
2022/01/16 15:20:46;;;;;;;3.92;2.63;;;;;;;;;;5075229;28;20059;-56
2022/01/16 15:23:12;;;;;;;3.35;2.58;;;;;;;;;;5073237;28;20029;-56
2022/01/16 15:25:38;;;;;;;4.85;2.67;;;;;;;;;;5055183;28;20058;-60
2022/01/16 15:28:04;;;;;;;4.65;2.50;;;;;;;;;;5063777;28;20048;-58
2022/01/16 15:30:30;;;;;;;3.13;2.33;;;;;;;;;;5057780;28;20025;-58
2022/01/16 15:32:56;;;;;;;3.17;2.47;;;;;;;;;;5054237;28;20036;-56